Time;durP1;ratioP1;P1;durP2;ratioP2;P2;SDS_P1;SDS_P2;PMS_P1;PMS_P2;Temp;Humidity;BMP_temperature;BMP_pressure;BME280_temperature;BME280_humidity;BME280_pressure;Samples;Min_cycle;Max_cycle;Signal;HPM_P1;HPM_P2
2020/12/30 01:10:44;;;;;;;4.30;2.00;;;;;;;5.10;67.02;98150.56;3829449;23;20024;-79
2020/12/30 02:04:10;;;;;;;4.57;1.85;;;;;;;5.12;67.74;98170.63;3820095;23;20330;-79
2020/12/30 02:05:43;;;;;;;5.55;2.00;;;;;;;5.12;67.95;98181.22;3814726;23;20021;-79
2020/12/30 02:07:24;;;;;;;4.95;2.00;;;;;;;5.13;67.47;98169.63;3820123;23;20399;-79
2020/12/30 02:08:59;;;;;;;6.13;1.95;;;;;;;5.11;67.76;98168.13;3814731;23;20021;-79
2020/12/30 02:10:30;;;;;;;3.55;1.85;;;;;;;5.10;68.00;98175.22;3820102;23;20036;-79
2020/12/30 03:14:18;;;;;;;4.80;2.10;;;;;;;4.89;69.02;98209.19;3823052;23;19987;-80
2020/12/30 03:15:51;;;;;;;4.55;1.70;;;;;;;4.88;68.88;98210.19;3817347;23;20021;-79
2020/12/30 03:17:22;;;;;;;6.55;1.88;;;;;;;4.91;68.82;98218.63;3815881;23;20026;-78
2020/12/30 03:19:01;;;;;;;4.13;1.90;;;;;;;4.90;68.87;98226.75;3821463;23;20026;-78
2020/12/30 03:20:32;;;;;;;6.30;2.28;;;;;;;4.93;69.10;98226.41;3815221;23;20040;-79
2020/12/30 03:41:05;;;;;;;4.00;1.65;;;;;;;4.93;69.94;98231.72;3821870;23;20014;-78
2020/12/30 05:09:26;;;;;;;4.35;1.40;;;;;;;5.01;69.88;98266.22;3812990;23;20049;-78
2020/12/30 05:10:59;;;;;;;3.10;1.00;;;;;;;5.02;69.80;98259.13;3821755;23;20029;-79
2020/12/30 05:12:30;;;;;;;3.60;1.40;;;;;;;5.08;69.88;98271.72;3785475;23;20022;-78
2020/12/30 05:14:02;;;;;;;5.32;1.50;;;;;;;5.02;69.75;98259.94;3804263;23;20407;-78
2020/12/30 05:15:36;;;;;;;4.25;1.77;;;;;;;5.04;69.49;98273.88;3740548;23;20018;-78
2020/12/30 05:17:10;;;;;;;3.53;1.45;;;;;;;5.01;69.58;98276.81;3795715;23;20026;-78
2020/12/30 05:18:42;;;;;;;6.65;2.08;;;;;;;5.04;69.81;98281.81;3794228;23;20022;-79
2020/12/30 05:20:26;;;;;;;4.65;1.75;;;;;;;4.97;69.39;98283.41;3804134;23;20028;-78
2020/12/30 05:26:59;;;;;;;3.75;1.52;;;;;;;5.03;69.84;98290.72;3822553;23;21285;-79
2020/12/30 05:28:41;;;;;;;3.80;1.60;;;;;;;5.01;69.56;98295.34;3823002;23;20392;-79
2020/12/30 05:30:22;;;;;;;4.45;1.55;;;;;;;4.95;69.50;98291.50;3817034;23;20354;-80
2020/12/30 05:33:34;;;;;;;4.90;1.73;;;;;;;5.06;69.74;98292.25;3821195;23;20482;-79
2020/12/30 05:35:11;;;;;;;3.28;1.38;;;;;;;5.04;69.43;98292.41;3822276;23;20028;-79
2020/12/30 05:36:45;;;;;;;2.88;1.15;;;;;;;5.03;69.31;98290.72;3815659;23;20095;-78
2020/12/30 05:38:36;;;;;;;3.28;1.20;;;;;;;5.02;69.00;98304.13;3821955;23;20026;-79
2020/12/30 05:40:20;;;;;;;4.72;1.58;;;;;;;5.03;68.94;98301.31;3817693;23;20037;-79
2020/12/30 05:42:08;;;;;;;3.55;1.80;;;;;;;4.97;69.52;98312.53;3811504;23;20081;-79
2020/12/30 05:43:41;;;;;;;3.72;1.30;;;;;;;4.89;69.67;98323.06;3804759;23;20555;-79
2020/12/30 05:45:20;;;;;;;3.10;1.15;;;;;;;4.82;69.58;98315.69;3800443;23;20029;-80
2020/12/30 05:47:10;;;;;;;3.13;1.40;;;;;;;4.83;69.66;98324.50;3807228;23;20045;-80
2020/12/30 05:48:48;;;;;;;5.32;1.58;;;;;;;4.82;69.62;98322.81;3800379;23;20022;-79
2020/12/30 05:50:23;;;;;;;3.20;1.40;;;;;;;4.87;69.56;98322.38;3797001;23;20025;-79
2020/12/30 06:29:10;;;;;;;4.05;1.60;;;;;;;4.51;70.63;98341.66;3828346;23;20025;-78
2020/12/30 06:30:53;;;;;;;3.10;1.27;;;;;;;4.49;70.40;98343.63;3815943;23;20029;-78
2020/12/30 06:32:29;;;;;;;3.40;1.35;;;;;;;4.47;70.53;98341.13;3801390;23;20052;-78
2020/12/30 06:34:01;;;;;;;4.68;1.60;;;;;;;4.46;70.66;98346.59;3821058;23;20136;-77
2020/12/30 06:35:34;;;;;;;3.45;1.35;;;;;;;4.46;70.63;98344.75;3816123;23;20021;-78
2020/12/30 06:37:07;;;;;;;5.85;1.52;;;;;;;4.47;70.43;98338.50;3821379;23;20049;-78
2020/12/30 06:38:42;;;;;;;5.40;1.60;;;;;;;4.48;70.31;98349.94;3816244;23;20351;-78
2020/12/30 06:40:24;;;;;;;5.75;1.88;;;;;;;4.49;70.04;98363.00;3821797;23;20056;-79
2020/12/30 06:42:06;;;;;;;3.33;1.40;;;;;;;4.41;70.24;98362.06;3813699;23;20048;-78
2020/12/30 06:43:57;;;;;;;3.60;1.60;;;;;;;4.39;70.08;98372.78;3822570;23;20059;-79
2020/12/30 06:45:51;;;;;;;;;;;;;;;4.31;70.35;98368.22;3798978;23;20029;-78
2020/12/30 06:47:59;;;;;;;4.50;2.10;;;;;;;4.26;70.19;98361.69;3816737;23;19943;-78
2020/12/30 06:49:47;;;;;;;4.20;1.63;;;;;;;4.33;70.33;98376.03;3822335;23;20399;-78
2020/12/30 07:16:51;;;;;;;3.28;1.40;;;;;;;4.46;69.68;98410.91;3822320;23;21724;-79
2020/12/30 07:18:25;;;;;;;4.95;1.77;;;;;;;4.48;69.61;98408.97;3796908;23;20025;-78
2020/12/30 07:20:02;;;;;;;2.92;1.30;;;;;;;4.43;69.75;98411.22;3803402;23;20029;-78
2020/12/30 07:25:04;;;;;;;3.85;1.42;;;;;;;4.51;69.43;98421.91;3820909;23;20049;-77
2020/12/30 07:26:37;;;;;;;4.00;1.58;;;;;;;4.57;69.11;98419.66;3812723;23;20028;-77
2020/12/30 07:28:09;;;;;;;4.32;1.75;;;;;;;4.45;69.26;98416.38;3820681;23;20017;-78
2020/12/30 07:29:44;;;;;;;6.22;2.05;;;;;;;4.42;69.58;98433.38;3812578;23;20029;-77
2020/12/30 07:31:28;;;;;;;4.93;1.77;;;;;;;4.37;69.40;98425.03;3821356;23;20072;-77
2020/12/30 07:33:00;;;;;;;3.88;1.48;;;;;;;4.37;69.45;98422.38;3794348;23;20022;-78
2020/12/30 07:34:34;;;;;;;4.18;1.83;;;;;;;4.36;69.68;98426.00;3803395;23;20084;-78
2020/12/30 07:36:08;;;;;;;4.82;1.80;;;;;;;4.33;69.48;98442.19;3796211;23;20045;-77
2020/12/30 07:37:41;;;;;;;5.65;1.88;;;;;;;4.36;69.60;98448.00;3803534;23;20022;-78
2020/12/30 07:39:15;;;;;;;4.95;1.63;;;;;;;4.36;69.82;98437.44;3796345;23;20050;-78
2020/12/30 07:41:01;;;;;;;4.72;2.22;;;;;;;4.26;69.80;98441.06;3802461;23;20026;-77
2020/12/30 07:50:54;;;;;;;6.00;2.22;;;;;;;4.43;69.88;98447.44;3816653;23;20017;-77
2020/12/30 07:52:26;;;;;;;4.00;1.75;;;;;;;4.49;69.70;98447.69;3820866;23;20029;-77
2020/12/30 07:53:57;;;;;;;5.43;2.42;;;;;;;4.46;69.56;98453.25;3814172;23;20036;-77
2020/12/30 07:55:52;;;;;;;7.57;2.30;;;;;;;4.46;69.57;98463.84;3821541;23;20025;-79
2020/12/30 07:57:24;;;;;;;5.68;2.00;;;;;;;4.42;69.63;98462.47;3812707;23;20021;-77
2020/12/30 07:58:55;;;;;;;4.72;2.25;;;;;;;4.44;70.02;98470.25;3821658;23;20022;-78
2020/12/30 08:00:29;;;;;;;4.30;1.90;;;;;;;4.40;69.83;98451.19;3813256;23;20413;-77
2020/12/30 08:05:26;;;;;;;5.53;1.88;;;;;;;4.36;70.22;98466.53;3813252;23;20020;-77
2020/12/30 08:07:01;;;;;;;3.60;1.70;;;;;;;4.35;70.24;98470.16;3822773;23;20023;-79
2020/12/30 08:08:55;;;;;;;4.78;2.08;;;;;;;4.22;70.21;98470.47;3813603;23;20024;-79
2020/12/30 08:10:50;;;;;;;4.57;1.85;;;;;;;4.24;70.41;98485.38;3822606;23;20344;-78
2020/12/30 08:12:38;;;;;;;4.35;2.00;;;;;;;4.19;70.45;98489.25;3813633;23;20055;-77
2020/12/30 08:14:36;;;;;;;8.57;4.70;;;;;;;4.08;70.82;98485.94;3819033;23;20076;-79
2020/12/30 08:16:30;;;;;;;5.20;2.55;;;;;;;4.05;70.84;98493.19;3813385;23;20044;-80
2020/12/30 08:18:23;;;;;;;6.25;2.40;;;;;;;4.08;71.09;98507.94;3814551;23;20021;-78
2020/12/30 08:20:32;;;;;;;4.75;1.80;;;;;;;4.01;71.37;98499.75;3821284;23;20032;-78
2020/12/30 08:24:17;;;;;;;4.13;1.73;;;;;;;4.10;71.27;98497.22;3818005;23;20017;-77
2020/12/30 08:26:03;;;;;;;4.68;2.10;;;;;;;4.07;71.13;98500.97;3823209;23;20427;-77
2020/12/30 08:27:57;;;;;;;5.10;2.00;;;;;;;4.15;71.27;98509.06;3814781;23;20025;-77
2020/12/30 08:30:10;;;;;;;6.10;2.40;;;;;;;4.16;71.28;98513.34;3816975;23;20018;-77
2020/12/30 08:46:31;;;;;;;4.00;1.48;;;;;;;4.71;68.52;98514.50;3822043;23;20022;-78
2020/12/30 08:48:21;;;;;;;4.32;1.67;;;;;;;4.79;68.58;98522.53;3816562;23;20022;-78
2020/12/30 08:50:16;;;;;;;5.50;2.38;;;;;;;4.84;68.08;98519.47;3823082;23;20021;-76
2020/12/30 08:51:54;;;;;;;4.78;1.73;;;;;;;4.93;68.03;98517.72;3817359;23;20023;-77
2020/12/30 08:53:36;;;;;;;5.55;1.42;;;;;;;4.93;67.74;98525.66;3814566;23;20041;-77
2020/12/30 08:55:09;;;;;;;4.05;1.60;;;;;;;5.03;68.10;98528.28;3821662;23;20033;-77
2020/12/30 08:56:41;;;;;;;4.00;1.50;;;;;;;5.09;67.94;98528.56;3793483;23;20038;-76
2020/12/30 08:58:13;;;;;;;4.85;1.50;;;;;;;5.15;67.65;98535.06;3802735;23;20351;-77
2020/12/30 08:59:50;;;;;;;3.95;1.30;;;;;;;5.12;67.18;98517.63;3813943;23;20469;-78
2020/12/30 09:01:24;;;;;;;5.07;1.90;;;;;;;5.17;67.21;98530.44;3821475;23;20021;-78
2020/12/30 09:03:14;;;;;;;4.25;1.77;;;;;;;5.12;67.13;98525.59;3817029;23;20037;-77
2020/12/30 09:05:01;;;;;;;3.78;1.55;;;;;;;5.14;67.04;98520.97;3821013;23;20048;-77
2020/12/30 09:06:33;;;;;;;4.00;1.50;;;;;;;5.17;67.34;98525.16;3814130;23;20041;-77
2020/12/30 09:08:11;;;;;;;5.00;1.83;;;;;;;5.06;66.67;98523.53;3821590;23;20489;-77
2020/12/30 09:10:00;;;;;;;4.65;1.88;;;;;;;5.08;66.82;98520.72;3779294;23;20022;-77
2020/12/30 09:11:33;;;;;;;6.35;2.05;;;;;;;5.08;67.16;98526.88;3808361;23;20022;-79
2020/12/30 09:13:11;;;;;;;4.70;1.73;;;;;;;5.10;67.09;98535.50;3820533;23;20029;-78
2020/12/30 09:14:42;;;;;;;4.45;1.40;;;;;;;5.21;67.28;98533.63;3813209;23;20096;-78
2020/12/30 09:16:14;;;;;;;5.70;1.67;;;;;;;5.22;67.21;98532.66;3819436;23;20025;-78
2020/12/30 09:17:59;;;;;;;3.55;1.33;;;;;;;5.32;66.75;98530.78;3811676;23;20394;-78
2020/12/30 09:19:33;;;;;;;4.55;2.10;;;;;;;5.39;66.82;98539.81;3819498;23;20161;-78
2020/12/30 10:53:27;;;;;;;5.05;1.92;;;;;;;5.76;65.12;98577.81;3819144;23;20043;-76
2020/12/30 10:55:00;;;;;;;5.63;2.00;;;;;;;5.80;65.06;98588.97;3818977;23;20021;-77
2020/12/30 10:56:32;;;;;;;4.65;1.92;;;;;;;5.86;65.08;98588.34;3812500;23;20028;-78
2020/12/30 10:58:04;;;;;;;4.45;2.10;;;;;;;5.87;65.19;98585.56;3819575;23;20124;-77
2020/12/30 10:59:38;;;;;;;4.68;2.10;;;;;;;5.95;64.88;98579.53;3811916;23;20025;-77
2020/12/30 11:01:10;;;;;;;3.60;1.50;;;;;;;6.02;64.75;98577.94;3820178;23;20033;-78
2020/12/30 11:11:07;;;;;;;4.60;2.40;;;;;;;6.14;64.15;98577.72;3821603;23;20410;-76
2020/12/30 11:12:38;;;;;;;6.00;1.83;;;;;;;6.08;64.33;98581.81;3810079;23;20022;-79
2020/12/30 11:14:09;;;;;;;6.90;2.33;;;;;;;5.96;64.52;98588.28;3820293;23;20029;-79
2020/12/30 11:15:41;;;;;;;5.72;2.08;;;;;;;5.99;64.72;98595.97;3811791;23;20036;-79
2020/12/30 11:17:18;;;;;;;5.05;2.00;;;;;;;6.01;64.35;98581.59;3820468;23;20026;-79
2020/12/30 11:18:50;;;;;;;5.55;1.95;;;;;;;5.99;64.81;98583.56;3814448;23;20026;-79
2020/12/30 11:20:21;;;;;;;6.90;2.30;;;;;;;5.97;64.80;98598.75;3813102;23;20033;-77
2020/12/30 11:50:28;;;;;;;4.05;1.98;;;;;;;6.15;64.40;98588.19;3814665;23;20024;-78
2020/12/30 11:59:26;;;;;;;6.57;1.83;;;;;;;6.26;64.04;98587.09;3815568;23;20024;-78
2020/12/30 12:01:00;;;;;;;5.20;1.90;;;;;;;6.22;64.08;98591.06;3820237;23;20021;-78
2020/12/30 12:02:31;;;;;;;5.32;2.25;;;;;;;6.22;64.35;98591.88;3795772;23;20028;-78
2020/12/30 12:04:03;;;;;;;8.60;2.50;;;;;;;6.17;64.15;98588.03;3800655;23;20086;-78
2020/12/30 12:05:43;;;;;;;4.50;1.92;;;;;;;6.13;64.06;98589.31;3810695;23;20025;-78
2020/12/30 12:07:15;;;;;;;5.28;2.08;;;;;;;6.04;64.72;98586.59;3820270;23;20017;-78
2020/12/30 12:08:48;;;;;;;5.63;1.98;;;;;;;6.02;64.70;98577.09;3814663;23;20029;-78
2020/12/30 12:10:19;;;;;;;8.07;2.42;;;;;;;5.99;64.70;98599.47;3820725;23;20060;-79
2020/12/30 12:23:44;;;;;;;4.13;1.88;;;;;;;5.97;64.88;98605.88;3813429;23;20080;-77
2020/12/30 12:25:34;;;;;;;5.13;1.80;;;;;;;5.98;64.85;98603.06;3820340;23;20018;-78
2020/12/30 12:27:12;;;;;;;6.43;2.10;;;;;;;6.01;64.71;98600.16;3812489;23;20025;-77
2020/12/30 12:29:00;;;;;;;4.60;2.00;;;;;;;6.01;64.83;98605.47;3819851;23;20021;-78
2020/12/30 12:30:35;;;;;;;5.68;2.00;;;;;;;6.10;64.85;98595.75;3810704;23;20088;-78
2020/12/30 12:40:37;;;;;;;6.53;2.30;;;;;;;6.15;65.13;98605.91;3820288;23;20476;-78
2020/12/30 12:42:15;;;;;;;6.18;2.50;;;;;;;6.13;65.12;98598.09;3811910;23;20022;-78
2020/12/30 12:43:50;;;;;;;4.80;1.95;;;;;;;6.21;65.10;98608.78;3819906;23;20327;-78
2020/12/30 12:45:23;;;;;;;4.35;1.90;;;;;;;6.22;65.18;98607.00;3811383;23;20350;-77
2020/12/30 12:46:54;;;;;;;4.10;2.33;;;;;;;6.18;65.24;98603.81;3820452;23;20021;-78
2020/12/30 12:48:27;;;;;;;5.07;2.20;;;;;;;6.21;65.05;98603.47;3811903;23;20025;-77
2020/12/30 12:49:58;;;;;;;7.57;2.20;;;;;;;6.23;65.23;98613.97;3820908;23;20018;-77
2020/12/30 13:06:34;;;;;;;5.68;1.98;;;;;;;6.23;65.68;98606.00;3783019;23;20498;-78
2020/12/30 13:08:05;;;;;;;5.72;2.10;;;;;;;6.20;65.33;98612.44;3810219;23;20458;-78
2020/12/30 13:09:37;;;;;;;5.18;1.83;;;;;;;6.21;65.42;98607.97;3811199;23;20022;-78
2020/12/30 13:11:08;;;;;;;4.57;1.92;;;;;;;6.23;65.39;98606.00;3819640;23;20099;-78
2020/12/30 13:17:40;;;;;;;5.10;2.10;;;;;;;6.31;65.46;98608.72;3813269;23;26477;-78
2020/12/30 13:19:12;;;;;;;6.68;2.20;;;;;;;6.37;65.46;98618.72;3820381;23;20032;-78
2020/12/30 13:20:45;;;;;;;5.65;2.20;;;;;;;6.33;65.51;98617.34;3813064;23;20482;-79
2020/12/30 13:22:22;;;;;;;5.55;2.00;;;;;;;6.33;65.61;98611.22;3821416;23;20022;-78
2020/12/30 13:23:53;;;;;;;4.90;2.20;;;;;;;6.30;65.64;98611.50;3800852;23;20018;-78
2020/12/30 13:25:28;;;;;;;4.80;2.10;;;;;;;6.29;65.61;98616.00;3820507;23;20028;-79
2020/12/30 13:27:01;;;;;;;4.30;1.75;;;;;;;6.32;65.83;98620.16;3814055;23;20029;-78
2020/12/30 13:28:40;;;;;;;10.05;2.28;;;;;;;6.28;65.92;98619.63;3820810;23;20026;-79
2020/12/30 13:30:13;;;;;;;7.13;2.03;;;;;;;6.36;66.15;98616.22;3786843;23;20029;-79
2020/12/30 13:31:51;;;;;;;8.00;2.50;;;;;;;6.34;65.94;98626.97;3806487;23;20040;-78
2020/12/30 13:33:24;;;;;;;5.60;1.70;;;;;;;6.32;66.10;98625.47;3813178;23;20022;-78
2020/12/30 13:35:01;;;;;;;5.78;2.30;;;;;;;6.35;66.21;98633.97;3820312;23;20021;-79
2020/12/30 13:36:34;;;;;;;5.45;2.15;;;;;;;6.34;66.18;98629.63;3814147;23;20037;-79
2020/12/30 13:38:05;;;;;;;5.07;1.90;;;;;;;6.38;66.12;98628.34;3819924;23;20017;-79
2020/12/30 13:39:37;;;;;;;5.28;2.40;;;;;;;6.34;66.13;98624.31;3813725;23;20029;-78
2020/12/30 13:41:11;;;;;;;8.05;2.25;;;;;;;6.29;66.46;98626.63;3820203;23;20033;-79
2020/12/30 13:48:30;;;;;;;4.70;1.88;;;;;;;6.37;66.66;98644.44;3819556;23;20025;-79
2020/12/30 13:50:08;;;;;;;5.75;2.15;;;;;;;6.39;66.52;98642.47;3819820;23;20028;-78
2020/12/30 13:51:45;;;;;;;4.95;1.80;;;;;;;6.45;66.78;98638.34;3813352;23;20028;-79
2020/12/30 13:53:18;;;;;;;6.88;1.98;;;;;;;6.30;67.04;98633.59;3820427;23;20466;-78
2020/12/30 13:55:11;;;;;;;5.65;1.83;;;;;;;6.30;67.44;98651.31;3821985;23;20025;-78
2020/12/30 13:56:50;;;;;;;4.10;1.90;;;;;;;6.23;67.50;98643.16;3823113;23;20022;-79
2020/12/30 13:58:24;;;;;;;3.65;1.42;;;;;;;6.33;67.14;98638.59;3830581;23;20025;-80
2020/12/30 13:59:56;;;;;;;2.97;1.30;;;;;;;6.37;67.19;98647.94;3824529;23;20041;-80
2020/12/30 14:20:15;;;;;;;4.72;1.63;;;;;;;6.23;67.82;98670.53;3820434;23;20113;-79
2020/12/30 14:21:48;;;;;;;4.82;1.70;;;;;;;6.23;67.55;98667.03;3812482;23;20030;-79
2020/12/30 14:23:20;;;;;;;7.55;2.10;;;;;;;6.23;67.52;98664.41;3810918;23;20025;-78
2020/12/30 14:24:52;;;;;;;5.00;1.70;;;;;;;6.20;67.75;98664.69;3818795;23;20018;-78
2020/12/30 14:26:24;;;;;;;3.72;1.60;;;;;;;6.23;67.65;98665.22;3812559;23;20071;-78
2020/12/30 14:27:56;;;;;;;3.65;1.48;;;;;;;6.34;67.24;98661.50;3819397;23;20033;-78
2020/12/30 14:29:33;;;;;;;5.65;2.20;;;;;;;6.32;67.22;98670.59;3812486;23;20022;-78
2020/12/30 14:31:17;;;;;;;5.75;1.85;;;;;;;6.25;67.38;98667.72;3819521;23;20033;-78
2020/12/30 14:33:00;;;;;;;6.10;2.13;;;;;;;6.16;67.74;98668.59;3812432;23;20029;-78
2020/12/30 14:34:34;;;;;;;5.30;1.60;;;;;;;6.36;67.46;98678.09;3819035;23;20188;-78
2020/12/30 14:36:07;;;;;;;3.40;1.20;;;;;;;6.40;67.11;98674.19;3812629;23;20546;-78
2020/12/30 14:37:45;;;;;;;4.80;1.73;;;;;;;6.43;67.11;98680.16;3818802;23;20021;-78
2020/12/30 14:39:17;;;;;;;5.28;1.77;;;;;;;6.43;67.02;98674.84;3812233;23;20018;-78
2020/12/30 14:40:50;;;;;;;7.93;2.22;;;;;;;6.44;66.96;98676.50;3819193;23;20021;-78
2020/12/30 14:54:31;;;;;;;4.38;1.80;;;;;;;6.35;67.46;98697.66;3823695;23;21239;-77
2020/12/30 14:56:09;;;;;;;3.58;1.13;;;;;;;6.36;67.41;98698.53;3821264;23;20021;-79
2020/12/30 14:57:40;;;;;;;5.55;1.80;;;;;;;6.45;67.08;98702.06;3815506;23;20462;-79
2020/12/30 14:59:12;;;;;;;5.05;1.52;;;;;;;6.53;67.05;98704.81;3820610;23;20462;-79
2020/12/30 15:00:43;;;;;;;5.20;2.13;;;;;;;6.49;67.21;98701.63;3814578;23;20525;-79
2020/12/30 15:10:36;;;;;;;5.22;2.20;;;;;;;6.04;68.26;98711.31;3824123;23;20021;-78
2020/12/30 15:43:53;;;;;;;4.00;2.08;;;;;;;5.34;73.11;98762.03;3825540;23;20271;-79
2020/12/30 15:45:24;;;;;;;5.68;2.75;;;;;;;5.36;73.18;98767.19;3818613;23;20050;-80
2020/12/30 15:46:56;;;;;;;6.07;2.15;;;;;;;5.28;73.51;98770.56;3826042;23;20045;-78
2020/12/30 15:48:28;;;;;;;5.47;2.17;;;;;;;5.29;73.77;98772.25;3821537;23;20033;-78
2020/12/30 15:50:06;;;;;;;4.60;2.25;;;;;;;5.25;73.81;98771.66;3831976;23;20033;-78
2020/12/30 15:52:01;;;;;;;5.60;2.22;;;;;;;5.19;73.92;98780.19;3823652;23;20021;-78
2020/12/30 15:53:37;;;;;;;5.63;2.08;;;;;;;5.17;74.19;98776.03;3824744;23;20025;-78
2020/12/30 15:55:25;;;;;;;4.00;1.85;;;;;;;5.06;74.30;98771.69;3830872;23;20018;-79
2020/12/30 15:58:57;;;;;;;4.57;1.98;;;;;;;5.03;74.62;98794.00;3837251;23;20021;-78
2020/12/30 16:00:54;;;;;;;4.40;1.95;;;;;;;5.10;74.56;98792.47;3824940;23;20032;-78
2020/12/30 16:04:06;;;;;;;6.68;2.80;;;;;;;5.07;74.41;98791.91;3825118;23;20021;-78
2020/12/30 16:05:38;;;;;;;6.50;2.58;;;;;;;5.09;74.95;98796.13;3817265;23;20029;-78
2020/12/30 16:07:10;;;;;;;5.47;2.70;;;;;;;5.11;74.47;98793.31;3823387;23;20017;-78
2020/12/30 16:08:43;;;;;;;4.95;2.53;;;;;;;5.19;74.65;98803.22;3822639;23;20017;-78
2020/12/30 16:10:19;;;;;;;6.97;3.55;;;;;;;5.21;74.15;98796.78;3829613;23;20049;-78
2020/12/30 16:15:18;;;;;;;5.13;2.35;;;;;;;5.20;74.26;98805.72;3820195;23;20359;-78
2020/12/30 16:16:49;;;;;;;6.07;2.78;;;;;;;5.25;74.49;98813.25;3821545;23;20024;-78
2020/12/30 16:18:26;;;;;;;6.93;2.33;;;;;;;5.23;74.31;98816.03;3814335;23;20068;-78
2020/12/30 16:19:58;;;;;;;6.00;2.63;;;;;;;5.20;74.30;98810.16;3821572;23;20025;-78
2020/12/30 16:21:30;;;;;;;4.97;2.58;;;;;;;5.18;74.03;98815.63;3782435;23;20026;-78
2020/12/30 16:23:01;;;;;;;4.38;2.08;;;;;;;5.20;73.76;98820.75;3802477;23;20522;-80
2020/12/30 16:24:35;;;;;;;4.95;1.77;;;;;;;5.27;73.74;98821.91;3795888;23;20018;-77
2020/12/30 16:26:06;;;;;;;5.10;2.42;;;;;;;5.20;73.50;98815.47;3802906;23;20029;-77
2020/12/30 16:27:38;;;;;;;5.82;2.08;;;;;;;5.23;73.52;98821.34;3796247;23;20018;-77
2020/12/30 16:29:10;;;;;;;4.40;1.95;;;;;;;5.21;73.54;98812.69;3803604;23;20141;-77
2020/12/30 16:30:45;;;;;;;3.38;1.70;;;;;;;5.27;73.42;98821.91;3796290;23;20053;-78
2020/12/30 16:32:17;;;;;;;4.63;2.30;;;;;;;5.28;73.39;98827.03;3803050;23;20022;-78
2020/12/30 16:33:49;;;;;;;5.03;1.83;;;;;;;5.20;73.59;98826.91;3794665;23;20029;-77
2020/12/30 16:35:21;;;;;;;5.50;2.17;;;;;;;5.19;73.78;98816.47;3796263;23;20026;-77
2020/12/30 16:36:54;;;;;;;6.57;2.75;;;;;;;5.24;73.73;98832.75;3803829;23;20025;-76
2020/12/30 16:38:25;;;;;;;5.15;1.75;;;;;;;5.25;73.59;98826.50;3799554;23;20026;-77
2020/12/30 16:39:56;;;;;;;7.07;2.33;;;;;;;5.24;73.68;98828.28;3800975;23;20021;-77
2020/12/30 16:41:28;;;;;;;3.70;1.70;;;;;;;5.30;73.50;98824.25;3799367;23;20033;-77
2020/12/30 16:42:59;;;;;;;5.20;2.00;;;;;;;5.32;73.35;98824.94;3802713;23;20033;-77
2020/12/30 16:44:32;;;;;;;4.80;1.80;;;;;;;5.26;73.36;98831.63;3798921;23;20022;-77
2020/12/30 16:46:05;;;;;;;5.80;2.17;;;;;;;5.28;73.27;98840.28;3802589;23;20100;-77
2020/12/30 16:47:36;;;;;;;5.50;1.77;;;;;;;5.28;73.46;98844.78;3801340;23;20022;-77
2020/12/30 16:49:08;;;;;;;4.10;1.70;;;;;;;5.35;73.19;98829.97;3804531;23;20132;-76
2020/12/30 16:50:40;;;;;;;4.25;1.80;;;;;;;5.28;73.09;98839.47;3800936;23;20481;-76
2020/12/30 16:52:11;;;;;;;5.95;2.03;;;;;;;5.29;73.03;98833.19;3804351;23;20081;-77
2020/12/30 16:53:44;;;;;;;6.28;1.80;;;;;;;5.28;73.03;98842.94;3805374;23;20026;-77
2020/12/30 16:55:23;;;;;;;3.35;1.40;;;;;;;5.21;72.75;98838.34;3809641;23;20026;-77
2020/12/30 16:57:04;;;;;;;3.78;1.63;;;;;;;5.25;72.87;98842.38;3810881;23;20029;-78
2020/12/30 16:58:54;;;;;;;4.28;1.65;;;;;;;5.23;72.96;98837.25;3811865;23;20048;-77
2020/12/30 17:00:31;;;;;;;6.32;1.63;;;;;;;5.24;73.09;98846.84;3809543;23;20041;-76
2020/12/30 17:02:03;;;;;;;4.03;1.75;;;;;;;5.21;73.18;98843.63;3811482;23;20026;-77
2020/12/30 17:03:34;;;;;;;3.60;1.63;;;;;;;5.12;73.41;98846.16;3810887;23;20030;-77
2020/12/30 17:05:06;;;;;;;3.72;1.50;;;;;;;5.14;73.67;98846.84;3813426;23;20022;-77
2020/12/30 17:07:08;;;;;;;4.13;1.75;;;;;;;5.15;73.30;98851.19;3810833;23;20025;-78
2020/12/30 17:09:17;;;;;;;4.53;2.00;;;;;;;5.12;73.28;98846.16;3813599;23;20044;-77
2020/12/30 17:10:48;;;;;;;4.30;1.58;;;;;;;5.19;73.09;98845.63;3814601;23;20006;-76
2020/12/30 17:12:21;;;;;;;3.75;1.30;;;;;;;5.26;73.03;98846.72;3812488;23;20025;-78
2020/12/30 17:14:21;;;;;;;4.20;1.40;;;;;;;5.30;73.06;98842.78;3815090;23;20491;-79
2020/12/30 17:15:52;;;;;;;3.85;1.65;;;;;;;5.30;72.87;98838.34;3814504;23;20014;-78
2020/12/30 17:17:24;;;;;;;4.53;1.95;;;;;;;5.26;73.13;98841.41;3812868;23;20014;-77
2020/12/30 17:19:00;;;;;;;4.07;1.80;;;;;;;5.24;72.81;98838.88;3815353;23;20029;-77
2020/12/30 17:20:32;;;;;;;4.70;1.63;;;;;;;5.29;72.85;98835.84;3801620;23;20029;-77
2020/12/30 17:22:22;;;;;;;4.13;1.48;;;;;;;5.25;72.45;98843.22;3803207;23;20335;-77
2020/12/30 17:23:57;;;;;;;3.10;1.42;;;;;;;5.23;72.87;98841.69;3800959;23;20022;-77
2020/12/30 17:25:28;;;;;;;5.80;2.13;;;;;;;5.22;72.80;98842.66;3804249;23;20077;-77
2020/12/30 17:27:02;;;;;;;5.80;2.00;;;;;;;5.18;72.73;98833.34;3801919;23;20344;-77
2020/12/30 17:28:33;;;;;;;3.88;1.30;;;;;;;5.27;72.68;98838.63;3803973;23;20014;-77
2020/12/30 17:30:14;;;;;;;4.80;1.75;;;;;;;5.19;72.60;98845.63;3801791;23;20022;-77
2020/12/30 17:32:06;;;;;;;4.88;2.17;;;;;;;5.14;72.78;98844.19;3803962;23;20030;-77
2020/12/30 17:33:39;;;;;;;3.80;1.80;;;;;;;5.17;72.85;98839.59;3801631;23;20026;-78
2020/12/30 17:35:18;;;;;;;4.25;1.67;;;;;;;5.18;72.77;98849.22;3805452;23;20021;-77
2020/12/30 17:36:57;;;;;;;5.13;2.05;;;;;;;5.19;72.63;98846.44;3802382;23;20014;-77
2020/12/30 17:38:29;;;;;;;4.20;2.00;;;;;;;5.19;72.83;98849.09;3802068;23;20022;-77
2020/12/30 17:40:00;;;;;;;8.40;2.17;;;;;;;5.20;72.42;98844.59;3803394;23;20101;-77
2020/12/30 17:41:32;;;;;;;4.38;1.83;;;;;;;5.22;72.44;98850.59;3801221;23;20026;-77
2020/12/30 17:43:03;;;;;;;3.65;1.83;;;;;;;5.25;72.35;98847.69;3804191;23;20379;-78
2020/12/30 17:44:38;;;;;;;4.55;1.98;;;;;;;5.22;72.33;98850.59;3800700;23;20451;-77
2020/12/30 17:46:09;;;;;;;5.13;1.95;;;;;;;5.27;72.23;98856.34;3803273;23;20567;-77
2020/12/30 17:47:42;;;;;;;4.15;1.75;;;;;;;5.30;72.07;98851.59;3801442;23;20026;-77
2020/12/30 17:49:16;;;;;;;5.82;2.28;;;;;;;5.27;71.91;98854.50;3803331;23;20120;-77
2020/12/30 17:50:48;;;;;;;3.90;1.88;;;;;;;5.27;72.06;98861.66;3801333;23;20722;-77
2020/12/30 17:52:19;;;;;;;4.53;1.83;;;;;;;5.26;71.83;98863.44;3804605;23;20055;-77
2020/12/30 17:53:51;;;;;;;3.75;1.83;;;;;;;5.16;72.17;98859.94;3801517;23;20085;-78
2020/12/30 17:55:44;;;;;;;3.80;1.80;;;;;;;5.10;72.24;98868.47;3803927;23;20058;-77
2020/12/30 17:57:16;;;;;;;4.82;2.55;;;;;;;5.08;72.49;98865.09;3800894;23;20026;-79
2020/12/30 17:58:47;;;;;;;5.40;2.30;;;;;;;4.99;73.00;98877.38;3805037;23;20026;-76
2020/12/30 18:00:22;;;;;;;4.55;2.20;;;;;;;4.94;72.95;98875.16;3802085;23;20025;-77
2020/12/30 18:01:59;;;;;;;4.57;2.38;;;;;;;4.90;73.26;98878.22;3804931;23;20094;-77
2020/12/30 18:03:30;;;;;;;6.85;3.15;;;;;;;4.89;73.23;98882.66;3801645;23;20456;-76
2020/12/30 18:05:36;;;;;;;6.30;3.05;;;;;;;4.82;73.60;98881.53;3803615;23;20053;-77
2020/12/30 18:07:24;;;;;;;5.90;2.90;;;;;;;4.82;73.89;98889.47;3801970;23;20018;-76
2020/12/30 18:08:57;;;;;;;5.45;3.00;;;;;;;4.85;73.45;98891.88;3801582;23;20037;-77
2020/12/30 18:10:34;;;;;;;7.03;2.83;;;;;;;4.87;73.37;98881.13;3803260;23;20391;-76
2020/12/30 18:12:05;;;;;;;5.63;2.92;;;;;;;4.92;73.38;98886.84;3801122;23;20061;-77
2020/12/30 18:13:37;;;;;;;7.97;3.53;;;;;;;4.91;73.18;98878.06;3802691;23;20029;-76
2020/12/30 18:15:26;;;;;;;8.70;3.80;;;;;;;4.83;73.89;98881.38;3799291;23;20025;-77
2020/12/30 18:16:57;;;;;;;7.35;3.47;;;;;;;4.84;73.74;98885.72;3804561;23;20391;-77
2020/12/30 18:18:39;;;;;;;7.03;3.45;;;;;;;4.88;73.60;98885.44;3802625;23;20022;-78
2020/12/30 18:20:14;;;;;;;6.03;3.03;;;;;;;4.87;73.97;98889.06;3803007;23;20026;-77
2020/12/30 18:21:45;;;;;;;7.82;3.30;;;;;;;4.87;73.92;98889.06;3800374;23;20108;-78
2020/12/30 18:23:17;;;;;;;7.78;3.80;;;;;;;4.87;73.80;98889.88;3804147;23;20455;-77
2020/12/30 18:24:48;;;;;;;7.47;4.00;;;;;;;4.82;74.02;98887.66;3800932;23;20022;-76
2020/12/30 18:26:27;;;;;;;5.45;2.78;;;;;;;4.86;73.65;98892.69;3800515;23;20026;-75
2020/12/30 18:28:02;;;;;;;6.05;3.78;;;;;;;4.86;73.79;98890.91;3804027;23;20022;-78
2020/12/30 18:29:40;;;;;;;6.53;3.00;;;;;;;4.88;73.98;98890.75;3799766;23;20026;-78
2020/12/30 18:31:11;;;;;;;6.70;3.58;;;;;;;4.88;73.83;98893.41;3802780;23;20072;-78
2020/12/30 18:32:55;;;;;;;5.68;2.67;;;;;;;4.93;73.78;98888.50;3802353;23;20022;-76